sensor_id;sensor_type;location;lat;lon;timestamp;pressure;altitude;pressure_sealevel;temperature;humidity
1616;BME280;801;47.982;7.810;2023-08-06T00:07:20;97965.63;;;16.26;100.00
1616;BME280;801;47.982;7.810;2023-08-06T00:09:55;97967.09;;;16.32;100.00
1616;BME280;801;47.982;7.810;2023-08-06T00:12:26;97966.19;;;16.46;100.00
1616;BME280;801;47.982;7.810;2023-08-06T00:14:56;97951.84;;;16.54;100.00
1616;BME280;801;47.982;7.810;2023-08-06T00:17:23;97958.25;;;16.58;100.00
1616;BME280;801;47.982;7.810;2023-08-06T00:19:49;97957.94;;;16.59;100.00
1616;BME280;801;47.982;7.810;2023-08-06T00:22:30;97957.13;;;16.50;100.00
1616;BME280;801;47.982;7.810;2023-08-06T00:24:57;97946.59;;;16.57;100.00
1616;BME280;801;47.982;7.810;2023-08-06T00:27:24;97950.13;;;16.67;100.00
1616;BME280;801;47.982;7.810;2023-08-06T00:29:50;97956.84;;;16.69;100.00
1616;BME280;801;47.982;7.810;2023-08-06T00:32:23;97941.81;;;16.63;100.00
1616;BME280;801;47.982;7.810;2023-08-06T00:34:55;97946.13;;;16.64;100.00
1616;BME280;801;47.982;7.810;2023-08-06T00:37:26;97952.50;;;16.59;100.00
1616;BME280;801;47.982;7.810;2023-08-06T00:39:53;97953.97;;;16.66;100.00
1616;BME280;801;47.982;7.810;2023-08-06T00:42:24;97943.56;;;16.68;100.00
1616;BME280;801;47.982;7.810;2023-08-06T00:44:54;97931.81;;;16.72;100.00
1616;BME280;801;47.982;7.810;2023-08-06T00:47:24;97922.81;;;16.63;100.00
1616;BME280;801;47.982;7.810;2023-08-06T00:49:53;97919.56;;;16.84;100.00
1616;BME280;801;47.982;7.810;2023-08-06T00:52:21;97921.09;;;16.76;100.00
1616;BME280;801;47.982;7.810;2023-08-06T00:54:49;97921.31;;;16.79;100.00
1616;BME280;801;47.982;7.810;2023-08-06T00:57:16;97920.84;;;16.86;100.00
1616;BME280;801;47.982;7.810;2023-08-06T00:59:44;97921.16;;;16.85;100.00
1616;BME280;801;47.982;7.810;2023-08-06T01:02:12;97903.13;;;16.89;100.00
1616;BME280;801;47.982;7.810;2023-08-06T01:04:38;97901.00;;;16.77;100.00
1616;BME280;801;47.982;7.810;2023-08-06T01:07:16;97902.31;;;16.79;100.00
1616;BME280;801;47.982;7.810;2023-08-06T01:09:54;97901.19;;;16.80;100.00
1616;BME280;801;47.982;7.810;2023-08-06T01:12:32;97893.53;;;16.83;100.00
1616;BME280;801;47.982;7.810;2023-08-06T01:15:06;97912.66;;;16.77;100.00
1616;BME280;801;47.982;7.810;2023-08-06T01:17:35;97892.72;;;16.82;100.00
1616;BME280;801;47.982;7.810;2023-08-06T01:20:06;97894.97;;;16.97;100.00
1616;BME280;801;47.982;7.810;2023-08-06T01:22:35;97922.28;;;16.92;100.00
1616;BME280;801;47.982;7.810;2023-08-06T01:25:05;97905.97;;;17.01;100.00
1616;BME280;801;47.982;7.810;2023-08-06T01:27:38;97908.22;;;16.99;100.00
1616;BME280;801;47.982;7.810;2023-08-06T01:30:12;97901.38;;;17.01;100.00
1616;BME280;801;47.982;7.810;2023-08-06T01:32:43;97901.38;;;17.01;100.00
1616;BME280;801;47.982;7.810;2023-08-06T01:35:15;97894.16;;;17.06;100.00
1616;BME280;801;47.982;7.810;2023-08-06T01:37:48;97888.91;;;17.09;100.00
1616;BME280;801;47.982;7.810;2023-08-06T01:40:18;97883.78;;;17.16;100.00
1616;BME280;801;47.982;7.810;2023-08-06T01:42:54;97879.00;;;17.13;100.00
1616;BME280;801;47.982;7.810;2023-08-06T01:45:24;97884.75;;;17.03;100.00
1616;BME280;801;47.982;7.810;2023-08-06T01:47:59;97894.81;;;17.11;100.00
1616;BME280;801;47.982;7.810;2023-08-06T01:50:34;97886.19;;;17.09;100.00
1616;BME280;801;47.982;7.810;2023-08-06T01:53:13;97894.81;;;16.94;100.00
1616;BME280;801;47.982;7.810;2023-08-06T01:55:41;97902.97;;;17.11;100.00
1616;BME280;801;47.982;7.810;2023-08-06T01:58:11;97904.72;;;17.07;100.00
1616;BME280;801;47.982;7.810;2023-08-06T02:00:43;97907.44;;;17.07;100.00
1616;BME280;801;47.982;7.810;2023-08-06T02:03:20;97892.75;;;16.99;100.00
1616;BME280;801;47.982;7.810;2023-08-06T02:05:55;97894.31;;;16.83;100.00
1616;BME280;801;47.982;7.810;2023-08-06T02:08:24;97900.19;;;16.59;100.00
1616;BME280;801;47.982;7.810;2023-08-06T02:10:51;97879.09;;;16.56;100.00
1616;BME280;801;47.982;7.810;2023-08-06T02:13:21;97893.09;;;16.40;100.00
1616;BME280;801;47.982;7.810;2023-08-06T02:15:48;97885.50;;;16.60;100.00
1616;BME280;801;47.982;7.810;2023-08-06T02:18:23;97889.13;;;16.47;100.00
1616;BME280;801;47.982;7.810;2023-08-06T02:20:56;97893.63;;;16.60;100.00
1616;BME280;801;47.982;7.810;2023-08-06T02:23:29;97904.97;;;16.13;100.00
1616;BME280;801;47.982;7.810;2023-08-06T02:25:57;97906.69;;;16.01;100.00
1616;BME280;801;47.982;7.810;2023-08-06T02:28:25;97908.84;;;15.81;100.00
1616;BME280;801;47.982;7.810;2023-08-06T02:30:52;97908.84;;;15.81;100.00
1616;BME280;801;47.982;7.810;2023-08-06T02:33:19;97908.06;;;15.67;100.00
1616;BME280;801;47.982;7.810;2023-08-06T02:35:46;97919.31;;;15.74;100.00
1616;BME280;801;47.982;7.810;2023-08-06T02:38:13;97932.28;;;15.86;100.00
1616;BME280;801;47.982;7.810;2023-08-06T02:40:46;97933.25;;;15.90;100.00
1616;BME280;801;47.982;7.810;2023-08-06T02:43:13;97924.31;;;15.89;100.00
1616;BME280;801;47.982;7.810;2023-08-06T02:45:40;97931.25;;;15.73;100.00
1616;BME280;801;47.982;7.810;2023-08-06T02:48:07;97922.25;;;15.41;100.00
1616;BME280;801;47.982;7.810;2023-08-06T02:50:37;97925.81;;;15.05;100.00
1616;BME280;801;47.982;7.810;2023-08-06T02:53:05;97925.03;;;15.05;100.00
1616;BME280;801;47.982;7.810;2023-08-06T02:55:32;97930.66;;;14.94;100.00
1616;BME280;801;47.982;7.810;2023-08-06T02:58:00;97929.00;;;15.07;100.00
1616;BME280;801;47.982;7.810;2023-08-06T03:00:30;97936.25;;;14.98;100.00
1616;BME280;801;47.982;7.810;2023-08-06T03:02:57;97922.25;;;14.96;100.00
1616;BME280;801;47.982;7.810;2023-08-06T03:05:24;97922.06;;;14.79;100.00
1616;BME280;801;47.982;7.810;2023-08-06T03:07:50;97909.63;;;14.78;100.00
1616;BME280;801;47.982;7.810;2023-08-06T03:10:17;97910.50;;;14.87;100.00
1616;BME280;801;47.982;7.810;2023-08-06T03:12:45;97903.44;;;14.77;100.00
1616;BME280;801;47.982;7.810;2023-08-06T03:15:16;97898.28;;;14.67;100.00
1616;BME280;801;47.982;7.810;2023-08-06T03:17:43;97896.94;;;14.64;100.00
1616;BME280;801;47.982;7.810;2023-08-06T03:20:10;97902.69;;;14.63;100.00
1616;BME280;801;47.982;7.810;2023-08-06T03:22:37;97905.56;;;14.52;100.00
1616;BME280;801;47.982;7.810;2023-08-06T03:25:04;97914.28;;;14.49;100.00
1616;BME280;801;47.982;7.810;2023-08-06T03:27:31;97909.78;;;14.45;100.00
1616;BME280;801;47.982;7.810;2023-08-06T03:30:08;97900.84;;;14.44;100.00
1616;BME280;801;47.982;7.810;2023-08-06T03:32:53;97890.53;;;14.46;100.00
1616;BME280;801;47.982;7.810;2023-08-06T03:35:25;97902.06;;;14.52;100.00
1616;BME280;801;47.982;7.810;2023-08-06T03:37:52;97894.88;;;14.61;100.00
1616;BME280;801;47.982;7.810;2023-08-06T03:40:22;97896.56;;;14.57;100.00
1616;BME280;801;47.982;7.810;2023-08-06T03:42:49;97890.44;;;14.51;100.00
1616;BME280;801;47.982;7.810;2023-08-06T03:45:19;97890.63;;;14.69;100.00
1616;BME280;801;47.982;7.810;2023-08-06T03:47:51;97893.66;;;14.67;100.00
1616;BME280;801;47.982;7.810;2023-08-06T03:50:21;97900.28;;;14.61;100.00
1616;BME280;801;47.982;7.810;2023-08-06T03:52:48;97895.16;;;14.60;100.00
1616;BME280;801;47.982;7.810;2023-08-06T03:55:15;97894.88;;;14.61;100.00
1616;BME280;801;47.982;7.810;2023-08-06T03:57:44;97890.88;;;14.45;100.00
1616;BME280;801;47.982;7.810;2023-08-06T04:00:14;97902.88;;;14.39;100.00
1616;BME280;801;47.982;7.810;2023-08-06T04:02:40;97901.47;;;14.27;100.00
1616;BME280;801;47.982;7.810;2023-08-06T04:05:09;97915.41;;;14.21;100.00
1616;BME280;801;47.982;7.810;2023-08-06T04:07:35;97927.00;;;14.21;100.00
1616;BME280;801;47.982;7.810;2023-08-06T04:10:03;97922.50;;;14.03;100.00
1616;BME280;801;47.982;7.810;2023-08-06T04:12:31;97942.91;;;14.09;100.00
1616;BME280;801;47.982;7.810;2023-08-06T04:14:58;97939.38;;;14.08;100.00
1616;BME280;801;47.982;7.810;2023-08-06T04:17:25;97939.88;;;13.97;100.00
1616;BME280;801;47.982;7.810;2023-08-06T04:19:54;97945.50;;;14.00;100.00
1616;BME280;801;47.982;7.810;2023-08-06T04:22:25;97937.78;;;13.94;100.00
1616;BME280;801;47.982;7.810;2023-08-06T04:24:51;97929.59;;;13.99;100.00
1616;BME280;801;47.982;7.810;2023-08-06T04:27:19;97932.78;;;14.01;100.00
1616;BME280;801;47.982;7.810;2023-08-06T04:29:45;97941.56;;;13.93;100.00
1616;BME280;801;47.982;7.810;2023-08-06T04:32:13;97934.38;;;13.88;100.00
1616;BME280;801;47.982;7.810;2023-08-06T04:34:39;97930.06;;;13.87;100.00
1616;BME280;801;47.982;7.810;2023-08-06T04:37:06;97921.06;;;13.91;100.00
1616;BME280;801;47.982;7.810;2023-08-06T04:39:35;97920.06;;;13.87;100.00
1616;BME280;801;47.982;7.810;2023-08-06T04:42:02;97916.06;;;13.99;100.00
1616;BME280;801;47.982;7.810;2023-08-06T04:44:28;97916.25;;;13.88;100.00
1616;BME280;801;47.982;7.810;2023-08-06T04:47:03;97929.19;;;13.91;100.00
1616;BME280;801;47.982;7.810;2023-08-06T04:52:08;97948.06;;;13.78;100.00
1616;BME280;801;47.982;7.810;2023-08-06T04:54:37;97957.06;;;13.73;100.00
1616;BME280;801;47.982;7.810;2023-08-06T04:57:05;97953.41;;;13.64;100.00
1616;BME280;801;47.982;7.810;2023-08-06T04:59:32;97947.81;;;13.60;100.00
1616;BME280;801;47.982;7.810;2023-08-06T05:01:59;97944.38;;;13.55;100.00
1616;BME280;801;47.982;7.810;2023-08-06T05:04:26;97956.78;;;13.56;100.00
1616;BME280;801;47.982;7.810;2023-08-06T05:06:53;97947.19;;;13.49;100.00
1616;BME280;801;47.982;7.810;2023-08-06T05:09:20;97950.47;;;13.46;100.00
1616;BME280;801;47.982;7.810;2023-08-06T05:11:49;97944.19;;;13.51;100.00
1616;BME280;801;47.982;7.810;2023-08-06T05:14:23;97953.03;;;13.38;100.00
1616;BME280;801;47.982;7.810;2023-08-06T05:16:53;97941.56;;;13.27;100.00
1616;BME280;801;47.982;7.810;2023-08-06T05:24:33;97948.59;;;13.28;100.00
1616;BME280;801;47.982;7.810;2023-08-06T05:29:43;97966.66;;;13.27;100.00
1616;BME280;801;47.982;7.810;2023-08-06T05:34:54;97969.50;;;13.36;100.00
1616;BME280;801;47.982;7.810;2023-08-06T05:37:51;97974.13;;;13.36;100.00
1616;BME280;801;47.982;7.810;2023-08-06T05:40:39;97980.59;;;13.35;100.00
1616;BME280;801;47.982;7.810;2023-08-06T05:43:07;97975.28;;;13.29;100.00
1616;BME280;801;47.982;7.810;2023-08-06T05:45:36;97993.91;;;13.26;100.00
1616;BME280;801;47.982;7.810;2023-08-06T05:48:04;97982.72;;;13.38;100.00
1616;BME280;801;47.982;7.810;2023-08-06T05:50:36;97981.91;;;13.37;100.00
1616;BME280;801;47.982;7.810;2023-08-06T05:53:03;97980.91;;;13.33;100.00
1616;BME280;801;47.982;7.810;2023-08-06T05:55:32;97979.00;;;13.34;100.00
1616;BME280;801;47.982;7.810;2023-08-06T05:57:59;97986.88;;;13.30;100.00
1616;BME280;801;47.982;7.810;2023-08-06T06:00:29;97988.63;;;13.40;100.00
1616;BME280;801;47.982;7.810;2023-08-06T06:03:08;97985.69;;;13.55;100.00
1616;BME280;801;47.982;7.810;2023-08-06T06:05:37;97981.38;;;13.54;100.00
1616;BME280;801;47.982;7.810;2023-08-06T06:08:05;97989.19;;;13.56;100.00
1616;BME280;801;47.982;7.810;2023-08-06T06:10:32;97993.38;;;13.62;100.00
1616;BME280;801;47.982;7.810;2023-08-06T06:12:59;98006.81;;;13.67;100.00
1616;BME280;801;47.982;7.810;2023-08-06T06:15:28;98009.69;;;13.57;100.00
1616;BME280;801;47.982;7.810;2023-08-06T06:17:55;97999.19;;;13.55;100.00
1616;BME280;801;47.982;7.810;2023-08-06T06:20:23;98008.00;;;13.61;100.00
1616;BME280;801;47.982;7.810;2023-08-06T06:22:50;98019.16;;;13.54;100.00
1616;BME280;801;47.982;7.810;2023-08-06T06:25:17;98021.59;;;13.56;100.00
1616;BME280;801;47.982;7.810;2023-08-06T06:27:43;98015.38;;;13.55;100.00
1616;BME280;801;47.982;7.810;2023-08-06T06:30:10;98021.72;;;13.45;100.00
1616;BME280;801;47.982;7.810;2023-08-06T06:32:38;98019.03;;;13.45;100.00
1616;BME280;801;47.982;7.810;2023-08-06T06:35:05;98025.38;;;13.55;100.00
1616;BME280;801;47.982;7.810;2023-08-06T06:37:33;98022.00;;;13.44;100.00
1616;BME280;801;47.982;7.810;2023-08-06T06:40:06;98043.75;;;13.53;100.00
1616;BME280;801;47.982;7.810;2023-08-06T06:42:33;98031.44;;;13.46;100.00
1616;BME280;801;47.982;7.810;2023-08-06T06:44:59;98032.00;;;13.43;100.00
1616;BME280;801;47.982;7.810;2023-08-06T06:47:26;98038.50;;;13.42;100.00
1616;BME280;801;47.982;7.810;2023-08-06T06:49:53;98037.84;;;13.32;100.00
1616;BME280;801;47.982;7.810;2023-08-06T06:52:19;98041.78;;;13.39;100.00
1616;BME280;801;47.982;7.810;2023-08-06T06:54:47;98029.47;;;13.33;100.00
1616;BME280;801;47.982;7.810;2023-08-06T06:57:14;98043.41;;;13.40;100.00
1616;BME280;801;47.982;7.810;2023-08-06T06:59:40;98040.25;;;13.33;100.00
1616;BME280;801;47.982;7.810;2023-08-06T07:02:07;98044.03;;;13.32;100.00
1616;BME280;801;47.982;7.810;2023-08-06T07:04:34;98030.97;;;13.39;100.00
1616;BME280;801;47.982;7.810;2023-08-06T07:07:00;98036.97;;;13.36;100.00
1616;BME280;801;47.982;7.810;2023-08-06T07:09:27;98049.06;;;13.39;100.00
1616;BME280;801;47.982;7.810;2023-08-06T07:11:55;98049.59;;;13.41;100.00
1616;BME280;801;47.982;7.810;2023-08-06T07:14:22;98047.13;;;13.44;100.00
1616;BME280;801;47.982;7.810;2023-08-06T07:16:49;98070.38;;;13.40;100.00
1616;BME280;801;47.982;7.810;2023-08-06T07:19:15;98040.06;;;13.48;100.00
1616;BME280;801;47.982;7.810;2023-08-06T07:21:42;98059.50;;;13.45;100.00
1616;BME280;801;47.982;7.810;2023-08-06T07:24:08;98063.00;;;13.65;100.00
1616;BME280;801;47.982;7.810;2023-08-06T07:26:35;98051.69;;;13.63;100.00
1616;BME280;801;47.982;7.810;2023-08-06T07:29:03;98067.53;;;13.50;100.00
1616;BME280;801;47.982;7.810;2023-08-06T07:31:30;98059.22;;;13.66;100.00
1616;BME280;801;47.982;7.810;2023-08-06T07:33:56;98070.47;;;13.73;100.00
1616;BME280;801;47.982;7.810;2023-08-06T07:36:23;98067.63;;;13.64;100.00
1616;BME280;801;47.982;7.810;2023-08-06T07:38:49;98069.88;;;13.76;100.00
1616;BME280;801;47.982;7.810;2023-08-06T07:41:20;98071.97;;;13.79;100.00
1616;BME280;801;47.982;7.810;2023-08-06T07:43:47;98075.22;;;13.62;100.00
1616;BME280;801;47.982;7.810;2023-08-06T07:46:16;98064.31;;;13.67;100.00
1616;BME280;801;47.982;7.810;2023-08-06T07:48:43;98081.09;;;13.83;100.00
1616;BME280;801;47.982;7.810;2023-08-06T07:51:11;98097.88;;;13.80;100.00
1616;BME280;801;47.982;7.810;2023-08-06T07:53:37;98091.53;;;13.90;100.00
1616;BME280;801;47.982;7.810;2023-08-06T07:56:04;98088.69;;;13.81;100.00
1616;BME280;801;47.982;7.810;2023-08-06T07:58:31;98105.91;;;13.85;100.00
1616;BME280;801;47.982;7.810;2023-08-06T08:01:00;98095.53;;;13.93;100.00
1616;BME280;801;47.982;7.810;2023-08-06T08:06:04;98103.72;;;13.87;100.00
1616;BME280;801;47.982;7.810;2023-08-06T08:08:32;98086.75;;;14.01;100.00
1616;BME280;801;47.982;7.810;2023-08-06T08:11:03;98090.31;;;13.82;100.00
1616;BME280;801;47.982;7.810;2023-08-06T08:13:29;98099.56;;;13.76;100.00
1616;BME280;801;47.982;7.810;2023-08-06T08:15:59;98109.25;;;13.77;100.00
1616;BME280;801;47.982;7.810;2023-08-06T08:18:31;98096.63;;;13.91;100.00
1616;BME280;801;47.982;7.810;2023-08-06T08:21:11;98112.16;;;14.00;100.00
1616;BME280;801;47.982;7.810;2023-08-06T08:23:41;98092.78;;;13.98;100.00
1616;BME280;801;47.982;7.810;2023-08-06T08:28:52;98098.75;;;13.95;100.00
1616;BME280;801;47.982;7.810;2023-08-06T08:36:43;98115.13;;;13.84;100.00
1616;BME280;801;47.982;7.810;2023-08-06T08:39:34;98118.84;;;13.69;100.00
1616;BME280;801;47.982;7.810;2023-08-06T08:42:09;98120.00;;;13.82;100.00
1616;BME280;801;47.982;7.810;2023-08-06T08:44:51;98104.09;;;13.81;100.00
1616;BME280;801;47.982;7.810;2023-08-06T08:47:43;98112.09;;;13.86;100.00
1616;BME280;801;47.982;7.810;2023-08-06T08:53:11;98117.78;;;14.03;100.00
1616;BME280;801;47.982;7.810;2023-08-06T08:55:55;98115.44;;;14.16;100.00
1616;BME280;801;47.982;7.810;2023-08-06T08:58:22;98126.03;;;14.12;100.00
1616;BME280;801;47.982;7.810;2023-08-06T09:00:50;98117.78;;;14.03;100.00
1616;BME280;801;47.982;7.810;2023-08-06T09:03:18;98120.94;;;14.24;100.00
1616;BME280;801;47.982;7.810;2023-08-06T09:05:51;98147.78;;;14.21;100.00
1616;BME280;801;47.982;7.810;2023-08-06T09:08:41;98132.53;;;14.11;100.00
1616;BME280;801;47.982;7.810;2023-08-06T09:11:43;98149.22;;;14.13;100.00
1616;BME280;801;47.982;7.810;2023-08-06T09:14:16;98147.78;;;14.21;100.00
1616;BME280;801;47.982;7.810;2023-08-06T09:16:47;98159.19;;;14.18;100.00
1616;BME280;801;47.982;7.810;2023-08-06T09:19:16;98145.72;;;14.31;100.00
1616;BME280;801;47.982;7.810;2023-08-06T09:21:45;98164.13;;;14.29;100.00
1616;BME280;801;47.982;7.810;2023-08-06T09:24:22;98164.88;;;14.16;100.00
1616;BME280;801;47.982;7.810;2023-08-06T09:30:49;98169.41;;;14.02;100.00
1616;BME280;801;47.982;7.810;2023-08-06T09:36:12;98164.69;;;14.26;100.00
1616;BME280;801;47.982;7.810;2023-08-06T09:46:37;98193.06;;;14.10;100.00
1616;BME280;801;47.982;7.810;2023-08-06T09:49:05;98175.22;;;14.28;100.00
1616;BME280;801;47.982;7.810;2023-08-06T09:51:38;98200.88;;;14.11;100.00
1616;BME280;801;47.982;7.810;2023-08-06T09:54:42;98174.94;;;14.29;100.00
1616;BME280;801;47.982;7.810;2023-08-06T09:57:21;98186.16;;;14.37;100.00
1616;BME280;801;47.982;7.810;2023-08-06T10:00:12;98178.41;;;14.49;100.00
1616;BME280;801;47.982;7.810;2023-08-06T10:13:09;98202.91;;;14.39;100.00
1616;BME280;801;47.982;7.810;2023-08-06T10:15:37;98226.19;;;14.35;100.00
1616;BME280;801;47.982;7.810;2023-08-06T10:18:11;98215.75;;;14.47;100.00
1616;BME280;801;47.982;7.810;2023-08-06T10:20:50;98214.66;;;14.48;100.00
1616;BME280;801;47.982;7.810;2023-08-06T10:23:33;98221.31;;;14.37;100.00
1616;BME280;801;47.982;7.810;2023-08-06T10:26:07;98203.22;;;14.51;100.00
1616;BME280;801;47.982;7.810;2023-08-06T10:28:47;98221.34;;;14.50;100.00
1616;BME280;801;47.982;7.810;2023-08-06T10:33:56;98218.09;;;14.53;100.00
1616;BME280;801;47.982;7.810;2023-08-06T10:39:17;98238.28;;;14.42;100.00
1616;BME280;801;47.982;7.810;2023-08-06T10:49:46;98244.84;;;14.55;100.00
1616;BME280;801;47.982;7.810;2023-08-06T10:52:23;98216.84;;;14.46;100.00
1616;BME280;801;47.982;7.810;2023-08-06T10:54:58;98236.03;;;14.44;100.00
1616;BME280;801;47.982;7.810;2023-08-06T11:05:46;98235.84;;;14.41;100.00
1616;BME280;801;47.982;7.810;2023-08-06T11:23:53;98261.00;;;14.60;100.00
1616;BME280;801;47.982;7.810;2023-08-06T11:29:05;98267.78;;;14.58;100.00
1616;BME280;801;47.982;7.810;2023-08-06T11:31:36;98269.44;;;14.72;100.00
1616;BME280;801;47.982;7.810;2023-08-06T11:34:12;98263.63;;;14.65;100.00
1616;BME280;801;47.982;7.810;2023-08-06T11:42:33;98289.22;;;14.87;100.00
1616;BME280;801;47.982;7.810;2023-08-06T11:45:08;98279.13;;;14.92;100.00
1616;BME280;801;47.982;7.810;2023-08-06T11:56:13;98283.66;;;14.97;100.00
1616;BME280;801;47.982;7.810;2023-08-06T11:58:49;98278.47;;;15.01;100.00
1616;BME280;801;47.982;7.810;2023-08-06T20:04:43;98693.31;;;15.44;100.00
1616;BME280;801;47.982;7.810;2023-08-06T20:07:27;98693.84;;;15.46;100.00
